createdAt,value
2022-12-03T00:05:57.210Z,94.6
2022-12-03T00:11:33.162Z,94.5
2022-12-03T00:17:08.333Z,94.2
2022-12-03T00:22:43.134Z,94.1
2022-12-03T00:28:17.776Z,94
2022-12-03T00:33:54.393Z,94.3
2022-12-03T00:39:30.099Z,94.2
2022-12-03T00:45:05.074Z,94.6
2022-12-03T00:51:01.211Z,94.9
2022-12-03T00:56:36.585Z,94.5
2022-12-03T01:02:13.417Z,94.8
2022-12-03T01:07:50.176Z,95
2022-12-03T01:13:25.934Z,95.1
2022-12-03T01:19:22.228Z,95.1
2022-12-03T01:25:23.738Z,94.7
2022-12-03T01:31:06.675Z,94.4
2022-12-03T01:36:55.257Z,94.2
2022-12-03T01:42:31.665Z,93.9
2022-12-03T01:48:28.563Z,93.9
2022-12-03T01:54:01.428Z,94.3
2022-12-03T01:59:36.776Z,94.3
2022-12-03T02:05:12.825Z,94.6
2022-12-03T02:11:01.719Z,94.8
2022-12-03T02:16:38.529Z,94.7
2022-12-03T02:22:14.375Z,95
2022-12-03T02:28:11.344Z,94.8
2022-12-03T02:33:46.614Z,95
2022-12-03T02:39:33.679Z,95.4
2022-12-03T02:45:12.591Z,95.5
2022-12-03T02:50:47.794Z,95.4
2022-12-03T02:56:23.244Z,95.3
2022-12-03T03:02:02.714Z,95.4
2022-12-03T03:07:39.479Z,95.6
2022-12-03T03:13:15.543Z,95.3
2022-12-03T03:18:50.619Z,95.2
2022-12-03T03:24:27.098Z,95.3
2022-12-03T03:30:02.420Z,95.5
2022-12-03T03:35:37.186Z,95.6
2022-12-03T03:41:14.366Z,95.7
2022-12-03T03:47:20.341Z,95.8
2022-12-03T03:52:53.390Z,96
2022-12-03T03:58:32.564Z,96
2022-12-03T04:04:16.381Z,96
2022-12-03T04:10:09.618Z,95.8
2022-12-03T04:15:47.608Z,95.9
2022-12-03T04:21:24.107Z,95.7
2022-12-03T04:27:01.991Z,95.7
2022-12-03T04:32:37.318Z,95.8
2022-12-03T04:38:12.506Z,95.5
2022-12-03T04:43:51.569Z,95.7
2022-12-03T04:49:36.200Z,95.7
2022-12-03T04:55:11.090Z,95.4
2022-12-03T05:00:48.724Z,95.5
2022-12-03T05:06:24.582Z,95.6
2022-12-03T05:11:59.874Z,95.6
2022-12-03T05:17:35.163Z,95.6
2022-12-03T05:23:24.839Z,95.6
2022-12-03T05:29:08.656Z,95.8
2022-12-03T05:34:44.384Z,95.9
2022-12-03T05:40:32.157Z,95.9
2022-12-03T05:46:29.272Z,95.8
2022-12-03T05:52:03.963Z,95.6
2022-12-03T05:57:51.042Z,95.7
2022-12-03T06:03:26.737Z,95.8
2022-12-03T06:09:04.576Z,96.1
2022-12-03T06:14:47.200Z,96.1
2022-12-03T06:20:22.784Z,96.2
2022-12-03T06:25:57.603Z,96.3
2022-12-03T06:31:34.239Z,96.3
2022-12-03T06:37:58.689Z,96.2
2022-12-03T06:44:18.665Z,96.2
2022-12-03T06:49:56.673Z,96
2022-12-03T06:55:52.137Z,95.8
2022-12-03T07:01:27.594Z,96.1
2022-12-03T07:07:12.504Z,95.8
2022-12-03T07:12:56.499Z,95.8
2022-12-03T07:18:51.680Z,95.8
2022-12-03T07:24:56.156Z,95.7
2022-12-03T07:30:31.779Z,95.5
2022-12-03T07:36:07.821Z,95.5
2022-12-03T07:42:03.876Z,95.7
2022-12-03T07:48:06.993Z,95.4
2022-12-03T07:53:39.486Z,95
2022-12-03T07:59:18.497Z,94.5
2022-12-03T08:05:01.413Z,94.1
2022-12-03T08:11:05.377Z,93.8
2022-12-03T08:16:47.435Z,94
2022-12-03T08:22:27.539Z,94.3
2022-12-03T08:28:06.374Z,94.7
2022-12-03T08:33:53.580Z,94.7
2022-12-03T08:39:32.385Z,94.9
2022-12-03T08:45:11.791Z,94.8
2022-12-03T08:50:51.188Z,94.7
2022-12-03T08:56:26.210Z,94.8
2022-12-03T09:02:06.001Z,94.9
2022-12-03T09:08:12.015Z,94.8
2022-12-03T09:14:19.157Z,94.8
2022-12-03T09:19:55.060Z,94.2
2022-12-03T09:25:33.305Z,94.1
2022-12-03T09:31:11.484Z,94.2
2022-12-03T09:37:08.024Z,94.6
2022-12-03T09:42:54.667Z,94.8
2022-12-03T09:48:52.280Z,94.1
2022-12-03T09:54:25.332Z,93.8
2022-12-03T10:00:02.727Z,93.9
2022-12-03T10:05:48.597Z,93.6
2022-12-03T10:11:50.860Z,93.4
2022-12-03T10:17:32.302Z,93.4
2022-12-03T10:23:13.623Z,93.5
2022-12-03T10:29:01.179Z,92.5
2022-12-03T10:35:11.903Z,91.6
2022-12-03T10:40:46.915Z,90.2
2022-12-03T10:46:35.976Z,88.9
2022-12-03T10:52:26.299Z,88.1
2022-12-03T10:58:03.741Z,85.8
2022-12-03T11:03:45.255Z,84.6
2022-12-03T11:09:23.016Z,83.1
2022-12-03T11:14:58.342Z,82.4
2022-12-03T11:20:34.305Z,82.7
2022-12-03T11:26:19.389Z,82.3
2022-12-03T11:31:55.229Z,83.8
2022-12-03T11:37:30.743Z,83.3
2022-12-03T11:43:07.360Z,84.3
2022-12-03T11:48:42.830Z,83.7
2022-12-03T11:54:20.631Z,83.9
2022-12-03T11:59:56.239Z,84.2
2022-12-03T12:05:31.915Z,85.3
2022-12-03T12:11:07.460Z,85.2
2022-12-03T12:16:50.354Z,86.2
2022-12-03T12:22:26.584Z,87.2
2022-12-03T12:28:01.584Z,85.8
2022-12-03T12:33:36.966Z,86.2
2022-12-03T12:39:22.044Z,86.8
2022-12-03T12:44:57.403Z,85.2
2022-12-03T12:50:33.522Z,86.2
2022-12-03T12:56:18.309Z,87.5
2022-12-03T13:02:10.644Z,88.4
2022-12-03T13:07:59.950Z,88.8
2022-12-03T13:13:45.482Z,88.7
2022-12-03T13:19:20.346Z,88.2
2022-12-03T13:26:27.508Z,88.3
2022-12-03T13:32:25.450Z,89
2022-12-03T13:38:00.261Z,88.4
2022-12-03T13:43:45.418Z,87.8
2022-12-03T13:49:42.160Z,88.7
2022-12-03T13:55:16.326Z,87.8
2022-12-03T14:00:55.350Z,88.6
2022-12-03T14:06:31.177Z,88.8
2022-12-03T14:12:06.875Z,88.4
2022-12-03T14:17:41.959Z,88
2022-12-03T14:23:23.276Z,88.6
2022-12-03T14:29:12.623Z,88.4
2022-12-03T14:34:50.493Z,87.6
2022-12-03T14:40:25.452Z,87.5
2022-12-03T14:46:13.451Z,87.9
2022-12-03T14:51:55.282Z,89.1
2022-12-03T14:57:44.016Z,89.9
2022-12-03T15:03:19.099Z,90.4
2022-12-03T15:08:58.807Z,90.6
2022-12-03T15:14:34.405Z,90.6
2022-12-03T15:20:43.359Z,91.3
2022-12-03T15:26:18.356Z,92.2
2022-12-03T15:31:53.375Z,92.4
2022-12-03T15:37:37.152Z,93
2022-12-03T15:43:21.177Z,93.4
2022-12-03T15:49:27.655Z,93.2
2022-12-03T15:55:00.312Z,93.7
2022-12-03T16:00:35.576Z,93.4
2022-12-03T16:06:14.110Z,94.5
2022-12-03T16:12:14.707Z,94.6
2022-12-03T16:18:38.369Z,94.9
2022-12-03T16:24:13.613Z,95.2
2022-12-03T16:29:53.756Z,94.8
2022-12-03T16:35:40.250Z,94.8
2022-12-03T16:41:15.062Z,94.8
2022-12-03T16:46:52.744Z,94.8
2022-12-03T16:52:28.869Z,94.8
2022-12-03T16:58:28.400Z,94.8
2022-12-03T17:04:23.960Z,95.1
2022-12-03T17:09:58.889Z,95.3
2022-12-03T17:15:48.163Z,95.6
2022-12-03T17:22:07.242Z,95.8
2022-12-03T17:27:46.056Z,95.8
2022-12-03T17:33:28.461Z,95.6
2022-12-03T17:39:11.385Z,95.8
2022-12-03T17:44:47.844Z,96.1
2022-12-03T17:50:22.989Z,96.1
2022-12-03T17:56:06.311Z,96.3
2022-12-03T18:01:43.473Z,96.5
2022-12-03T18:07:19.714Z,96.7
2022-12-03T18:13:02.552Z,96.9
2022-12-03T18:18:40.615Z,97
2022-12-03T18:24:15.752Z,97.2
2022-12-03T18:29:50.906Z,97.2
2022-12-03T18:35:56.763Z,97.2
2022-12-03T18:41:50.413Z,97.4
2022-12-03T18:47:32.966Z,97.4
2022-12-03T18:53:09.861Z,97.8
2022-12-03T18:58:50.896Z,97.7
2022-12-03T19:04:51.923Z,97.7
2022-12-03T19:10:30.581Z,97.8
2022-12-03T19:17:38.941Z,97.7
2022-12-03T19:23:14.166Z,97.8
2022-12-03T19:28:51.549Z,97.5
2022-12-03T19:34:33.583Z,97.6
2022-12-03T19:40:17.030Z,97.5
2022-12-03T19:45:52.955Z,97.5
2022-12-03T19:51:54.160Z,97.4
2022-12-03T19:57:37.609Z,97.6
2022-12-03T20:03:33.495Z,97.7
2022-12-03T20:09:32.362Z,97.8
2022-12-03T20:15:18.860Z,97.7
2022-12-03T20:20:54.938Z,97.7
2022-12-03T20:26:52.665Z,97.5
2022-12-03T20:32:29.550Z,97.5
2022-12-03T20:38:22.996Z,97.7
2022-12-03T20:44:06.421Z,97.6
2022-12-03T20:49:56.634Z,97.6
2022-12-03T20:55:33.097Z,97.8
2022-12-03T21:01:38.743Z,97.9
2022-12-03T21:07:39.295Z,97.7
2022-12-03T21:14:19.147Z,97.6
2022-12-03T21:19:56.069Z,97.5
2022-12-03T21:26:04.220Z,97.4
2022-12-03T21:31:39.648Z,97.5
2022-12-03T21:37:16.120Z,97.1
2022-12-03T21:42:57.011Z,97
2022-12-03T21:48:38.493Z,96.8
2022-12-03T21:54:15.683Z,96.6
2022-12-03T21:59:51.217Z,96.2
2022-12-03T22:05:29.908Z,96.3
2022-12-03T22:11:10.599Z,96.2
2022-12-03T22:17:01.773Z,96.3
2022-12-03T22:22:52.131Z,96.5
2022-12-03T22:28:50.516Z,96.5
2022-12-03T22:34:25.772Z,96.9
2022-12-03T22:40:22.158Z,97.2
2022-12-03T22:45:57.656Z,97.2
2022-12-03T22:51:33.697Z,97.3
2022-12-03T22:57:09.459Z,97.4
2022-12-03T23:03:12.602Z,97.5
2022-12-03T23:08:49.561Z,97.3
2022-12-03T23:14:33.667Z,97.3
2022-12-03T23:20:11.305Z,97.3
2022-12-03T23:25:51.314Z,97.1
2022-12-03T23:31:26.924Z,97
2022-12-03T23:37:04.106Z,97.1
2022-12-03T23:42:47.423Z,97.4
2022-12-03T23:48:47.540Z,97.4
2022-12-03T23:54:21.139Z,97.6
